Coral Leaf — PHNI — position and weather

sailwx.info

Track history (hours):
 
Tides and Currents Weather Stations Pressure Air Temp Water Temp Dewpoint Dewpoint Depression Visibility Wind Speed Wind Dir Waves Ship Positions

Coral Leaf

Last reported at 2015-Jan-30 04:33 UTC. Time now 2015-Jan-30 04:52 UTC.
Position N 57°48' E 010°45'.

Length 108 m; draft 5.2 m.

Type: Ship (hazmat cat D). MMSI: 244036000.

Date/timePositionNaut miles runAvg speedWind from/ knotsBaromVisibWave heightAir tempDewpointWater temp
2015-Jan-30 04:33N 57°48' E 010°45'1110.6
2015-Jan-30 03:33N 57°47' E 010°25'6210.2
2015-Jan-29 21:27N 57°22' E 008°38'1010.5
2015-Jan-29 20:30N 57°17' E 008°22'1010.6
2015-Jan-29 19:32N 57°12' E 008°06'1110.8
2015-Jan-29 18:33N 57°06' E 007°49'1110.5
2015-Jan-29 17:32N 57°01' E 007°32'1010.5
2015-Jan-29 16:32N 56°56' E 007°15'31029.8
2015-Jan-29 06:08N 54°42' W 001°02'31 2.1
2015-Jan-28 15:32N 54°53' W 000°12'1010.6
2015-Jan-28 14:33N 54°49' W 000°28'8 7.9
2015-Jan-28 13:32N 54°45' W 000°40'4 4.2
2015-Jan-28 12:33N 54°45' W 000°48'6 6.5
2015-Jan-28 11:33N 54°47' W 000°58'3 3.5
2015-Jan-28 10:33N 54°44' W 001°02'3 2.7
2015-Jan-28 09:32N 54°42' W 001°02'0 0.0
2015-Jan-28 08:32N 54°42' W 001°02'0 0.1
2015-Jan-28 07:29N 54°42' W 001°02'0 0.0
2015-Jan-28 06:32N 54°42' W 001°02'0 0.0
2015-Jan-28 05:29N 54°42' W 001°02'0 0.0
2015-Jan-28 04:26N 54°42' W 001°02'0 0.0
2015-Jan-28 03:32N 54°42' W 001°02'0 0.0
2015-Jan-28 02:32N 54°42' W 001°02'0 0.0
2015-Jan-28 01:32N 54°42' W 001°02'0 0.0
2015-Jan-28 00:32N 54°42' W 001°02'0 0.0
2015-Jan-27 23:32N 54°42' W 001°02'0 0.0
2015-Jan-27 22:32N 54°42' W 001°02'0 0.0
2015-Jan-27 21:32N 54°42' W 001°02'0 0.0
2015-Jan-27 20:32N 54°42' W 001°02'0 0.0
2015-Jan-27 19:32N 54°42' W 001°02'0 0.0
2015-Jan-27 18:29N 54°42' W 001°02'0 0.0
2015-Jan-27 17:29N 54°42' W 001°02'0 0.0
2015-Jan-27 16:20N 54°42' W 001°02'0 0.0
2015-Jan-27 15:32N 54°42' W 001°02'0 0.0
2015-Jan-27 14:32N 54°42' W 001°02'0 0.0
2015-Jan-27 13:32N 54°42' W 001°02'0 0.0
2015-Jan-27 12:32N 54°42' W 001°02'0 0.0
2015-Jan-27 11:17N 54°42' W 001°02'0 0.0
2015-Jan-27 09:23N 54°42' W 001°02'0 0.0
2015-Jan-27 08:26N 54°42' W 001°02'0 0.0
2015-Jan-27 07:17N 54°42' W 001°02'0 0.0
2015-Jan-27 06:31N 54°42' W 001°02'0 0.0
2015-Jan-27 05:32N 54°42' W 001°02'0 0.0
2015-Jan-27 04:32N 54°42' W 001°02'0 0.0
2015-Jan-27 03:31N 54°42' W 001°02'0 0.0
2015-Jan-27 02:31N 54°42' W 001°02'0 0.0
2015-Jan-27 01:31N 54°42' W 001°02'0 0.0
2015-Jan-27 00:31N 54°42' W 001°02'0 0.0
2015-Jan-26 23:31N 54°42' W 001°02'0 0.0
2015-Jan-26 22:31N 54°42' W 001°02'0 0.0
2015-Jan-26 21:31N 54°42' W 001°02'0 0.0
2015-Jan-26 20:31N 54°42' W 001°02'0 0.0
2015-Jan-26 19:31N 54°42' W 001°02'0 0.0
2015-Jan-26 18:31N 54°42' W 001°02'0 0.0
2015-Jan-26 17:16N 54°42' W 001°02'0 0.0
2015-Jan-26 16:28N 54°42' W 001°02'0 0.0
2015-Jan-26 15:31N 54°42' W 001°02'0 0.1
2015-Jan-26 14:19N 54°42' W 001°02'0 0.1
2015-Jan-26 13:31N 54°42' W 001°02'0 0.0
2015-Jan-26 12:16N 54°42' W 001°02'0 0.0
2015-Jan-26 11:22N 54°42' W 001°02'0 0.0
2015-Jan-26 10:22N 54°42' W 001°02'0 0.0
2015-Jan-26 09:25N 54°42' W 001°02'0 0.0
2015-Jan-26 08:22N 54°42' W 001°02'0 0.0
2015-Jan-26 07:31N 54°42' W 001°02'0 0.0
2015-Jan-26 06:28N 54°42' W 001°02'0 0.0
2015-Jan-26 05:31N 54°42' W 001°02'0 0.0
2015-Jan-26 04:31N 54°42' W 001°02'0 0.0
2015-Jan-26 03:31N 54°42' W 001°02'0 0.1
2015-Jan-26 02:31N 54°42' W 001°02'0 0.0
2015-Jan-26 01:31N 54°42' W 001°02'0 0.0
2015-Jan-26 00:31N 54°42' W 001°02'0 0.0
2015-Jan-25 23:31N 54°42' W 001°02'0 0.0
2015-Jan-25 22:31N 54°42' W 001°02'0 0.0
2015-Jan-25 21:32N 54°42' W 001°02'0 0.1
2015-Jan-25 20:31N 54°42' W 001°02'0 0.0
2015-Jan-25 19:31N 54°42' W 001°02'0 0.0
2015-Jan-25 18:30N 54°42' W 001°02'0 0.0
2015-Jan-25 17:33N 54°42' W 001°02'0 0.0
2015-Jan-25 16:33N 54°42' W 001°02'0 0.0
2015-Jan-25 15:33N 54°42' W 001°02'0 0.0
2015-Jan-25 14:33N 54°42' W 001°02'0 0.0
2015-Jan-25 13:33N 54°42' W 001°02'0 0.0
2015-Jan-25 12:21N 54°42' W 001°02'0 0.0
2015-Jan-25 11:18N 54°42' W 001°02'0 0.0
2015-Jan-25 10:33N 54°42' W 001°02'0 0.0
2015-Jan-25 09:09N 54°42' W 001°02'0 0.0
2015-Jan-25 08:33N 54°42' W 001°02'0 0.0
2015-Jan-25 07:33N 54°42' W 001°02'0 0.0
2015-Jan-25 06:33N 54°42' W 001°02'0 0.0
2015-Jan-25 05:33N 54°42' W 001°02'0 0.0
2015-Jan-25 04:33N 54°42' W 001°02'0 0.0
2015-Jan-25 03:33N 54°42' W 001°02'0 0.0
2015-Jan-25 02:33N 54°42' W 001°02'0 0.0
2015-Jan-25 01:30N 54°42' W 001°02'0 0.0
2015-Jan-25 00:33N 54°42' W 001°02'0 0.0
2015-Jan-24 23:33N 54°42' W 001°02'0 0.1
2015-Jan-24 22:33N 54°42' W 001°02'0 0.0
2015-Jan-24 21:33N 54°42' W 001°02'0 0.0
2015-Jan-24 20:33N 54°42' W 001°02'0 0.1
2015-Jan-24 19:33N 54°42' W 001°02'9 9.3
2015-Jan-24 18:33N 54°45' W 000°47'1413.8
2015-Jan-24 17:33N 54°50' W 000°25'1413.5
2015-Jan-24 16:33N 54°56' W 000°04'1312.7
2015-Jan-24 15:33N 55°01' E 000°17'37110.0
2015-Jan-23 02:33N 57°49' E 010°14'1515.3
2015-Jan-23 01:33N 57°50' E 010°42'1515.2
2015-Jan-23 00:33N 57°51' E 011°11'1313.0
2015-Jan-22 23:33N 57°55' E 011°34'9 9.5
2015-Jan-22 22:33N 58°01' E 011°47'4 2.8
2015-Jan-22 21:05N 58°05' E 011°49'0 0.0
2015-Jan-22 20:20N 58°05' E 011°49'0 0.0
2015-Jan-22 19:32N 58°05' E 011°49'0 0.0
2015-Jan-22 18:32N 58°05' E 011°49'0 0.0
2015-Jan-22 17:32N 58°05' E 011°49'0 0.0
2015-Jan-22 16:29N 58°05' E 011°49'0 0.0
2015-Jan-22 15:32N 58°05' E 011°49'0 0.0
2015-Jan-22 14:23N 58°05' E 011°49'0 0.0
2015-Jan-22 13:26N 58°05' E 011°49'0 0.0
2015-Jan-22 12:26N 58°05' E 011°49'0 0.0
2015-Jan-22 11:23N 58°05' E 011°49'0 0.0
2015-Jan-22 10:20N 58°05' E 011°49'0 0.0
2015-Jan-22 09:20N 58°05' E 011°49'0 0.0
2015-Jan-22 07:20N 58°05' E 011°49'0 0.0
2015-Jan-22 06:14N 58°05' E 011°49'0 0.0
2015-Jan-22 04:26N 58°05' E 011°49'0 0.0
2015-Jan-22 03:17N 58°05' E 011°49'0 0.0
2015-Jan-22 01:26N 58°05' E 011°49'5 5.2
2015-Jan-22 00:34N 58°01' E 011°47'9 9.3
2015-Jan-21 23:33N 57°55' E 011°34'810.5
2015-Jan-21 22:50N 57°48' E 011°26'114.3
2015-Jan-21 22:46N 57°47' E 011°26'314.9
2015-Jan-21 22:34N 57°44' E 011°25'1514.8
2015-Jan-21 21:34N 57°29' E 011°27'1514.6
2015-Jan-21 20:34N 57°16' E 011°36'1414.2
2015-Jan-21 19:33N 57°02' E 011°44'1414.2
2015-Jan-21 18:33N 56°49' E 011°53'1414.2
2015-Jan-21 17:33N 56°35' E 011°59'1414.3
2015-Jan-21 16:34N 56°21' E 012°05'1413.9
2015-Jan-21 15:34N 56°11' E 012°24'1313.5
2015-Jan-21 14:33N 56°02' E 012°40'1413.9
2015-Jan-21 13:34N 55°48' E 012°42'1413.7
2015-Jan-21 12:34N 55°34' E 012°42'1312.7
2015-Jan-21 11:34N 55°21' E 012°40'1211.8
2015-Jan-21 10:33N 55°16' E 012°58'1414.1
2015-Jan-21 09:33N 55°15' E 013°23'1413.7
2015-Jan-21 08:33N 55°14' E 013°47'1413.9
2015-Jan-21 07:33N 55°13' E 014°11'1312.7
2015-Jan-21 06:34N 55°21' E 014°28'1514.6
2015-Jan-21 05:34N 55°31' E 014°48'1414.4
2015-Jan-21 04:33N 55°38' E 015°11'  
Track history (hours):
 
Tides and Currents Weather Stations Pressure Air Temp Water Temp Dewpoint Dewpoint Depression Visibility Wind Speed Wind Dir Waves Ship Positions

Coral Leaf

Last reported at 2015-Jan-30 04:33 UTC. Time now 2015-Jan-30 04:52 UTC.
Position N 57°48' E 010°45'.

Length 108 m; draft 5.2 m.

Type: Ship (hazmat cat D). MMSI: 244036000.

Date/timePositionNaut miles runAvg speedWind from/ knotsBaromVisibWave heightAir tempDewpointWater temp
2015-Jan-30 04:33N 57°48' E 010°45'1110.6
2015-Jan-30 03:33N 57°47' E 010°25'6210.2
2015-Jan-29 21:27N 57°22' E 008°38'1010.5
2015-Jan-29 20:30N 57°17' E 008°22'1010.6
2015-Jan-29 19:32N 57°12' E 008°06'1110.8
2015-Jan-29 18:33N 57°06' E 007°49'1110.5
2015-Jan-29 17:32N 57°01' E 007°32'1010.5
2015-Jan-29 16:32N 56°56' E 007°15'31029.8
2015-Jan-29 06:08N 54°42' W 001°02'31 2.1
2015-Jan-28 15:32N 54°53' W 000°12'1010.6
2015-Jan-28 14:33N 54°49' W 000°28'8 7.9
2015-Jan-28 13:32N 54°45' W 000°40'4 4.2
2015-Jan-28 12:33N 54°45' W 000°48'6 6.5
2015-Jan-28 11:33N 54°47' W 000°58'3 3.5
2015-Jan-28 10:33N 54°44' W 001°02'3 2.7
2015-Jan-28 09:32N 54°42' W 001°02'0 0.0
2015-Jan-28 08:32N 54°42' W 001°02'0 0.1
2015-Jan-28 07:29N 54°42' W 001°02'0 0.0
2015-Jan-28 06:32N 54°42' W 001°02'0 0.0
2015-Jan-28 05:29N 54°42' W 001°02'0 0.0
2015-Jan-28 04:26N 54°42' W 001°02'0 0.0
2015-Jan-28 03:32N 54°42' W 001°02'0 0.0
2015-Jan-28 02:32N 54°42' W 001°02'0 0.0
2015-Jan-28 01:32N 54°42' W 001°02'0 0.0
2015-Jan-28 00:32N 54°42' W 001°02'0 0.0
2015-Jan-27 23:32N 54°42' W 001°02'0 0.0
2015-Jan-27 22:32N 54°42' W 001°02'0 0.0
2015-Jan-27 21:32N 54°42' W 001°02'0 0.0
2015-Jan-27 20:32N 54°42' W 001°02'0 0.0
2015-Jan-27 19:32N 54°42' W 001°02'0 0.0
2015-Jan-27 18:29N 54°42' W 001°02'0 0.0
2015-Jan-27 17:29N 54°42' W 001°02'0 0.0
2015-Jan-27 16:20N 54°42' W 001°02'0 0.0
2015-Jan-27 15:32N 54°42' W 001°02'0 0.0
2015-Jan-27 14:32N 54°42' W 001°02'0 0.0
2015-Jan-27 13:32N 54°42' W 001°02'0 0.0
2015-Jan-27 12:32N 54°42' W 001°02'0 0.0
2015-Jan-27 11:17N 54°42' W 001°02'0 0.0
2015-Jan-27 09:23N 54°42' W 001°02'0 0.0
2015-Jan-27 08:26N 54°42' W 001°02'0 0.0
2015-Jan-27 07:17N 54°42' W 001°02'0 0.0
2015-Jan-27 06:31N 54°42' W 001°02'0 0.0
2015-Jan-27 05:32N 54°42' W 001°02'0 0.0
2015-Jan-27 04:32N 54°42' W 001°02'0 0.0
2015-Jan-27 03:31N 54°42' W 001°02'0 0.0
2015-Jan-27 02:31N 54°42' W 001°02'0 0.0
2015-Jan-27 01:31N 54°42' W 001°02'0 0.0
2015-Jan-27 00:31N 54°42' W 001°02'0 0.0
2015-Jan-26 23:31N 54°42' W 001°02'0 0.0
2015-Jan-26 22:31N 54°42' W 001°02'0 0.0
2015-Jan-26 21:31N 54°42' W 001°02'0 0.0
2015-Jan-26 20:31N 54°42' W 001°02'0 0.0
2015-Jan-26 19:31N 54°42' W 001°02'0 0.0
2015-Jan-26 18:31N 54°42' W 001°02'0 0.0
2015-Jan-26 17:16N 54°42' W 001°02'0 0.0
2015-Jan-26 16:28N 54°42' W 001°02'0 0.0
2015-Jan-26 15:31N 54°42' W 001°02'0 0.1
2015-Jan-26 14:19N 54°42' W 001°02'0 0.1
2015-Jan-26 13:31N 54°42' W 001°02'0 0.0
2015-Jan-26 12:16N 54°42' W 001°02'0 0.0
2015-Jan-26 11:22N 54°42' W 001°02'0 0.0
2015-Jan-26 10:22N 54°42' W 001°02'0 0.0
2015-Jan-26 09:25N 54°42' W 001°02'0 0.0
2015-Jan-26 08:22N 54°42' W 001°02'0 0.0
2015-Jan-26 07:31N 54°42' W 001°02'0 0.0
2015-Jan-26 06:28N 54°42' W 001°02'0 0.0
2015-Jan-26 05:31N 54°42' W 001°02'0 0.0
2015-Jan-26 04:31N 54°42' W 001°02'0 0.0
2015-Jan-26 03:31N 54°42' W 001°02'0 0.1
2015-Jan-26 02:31N 54°42' W 001°02'0 0.0
2015-Jan-26 01:31N 54°42' W 001°02'0 0.0
2015-Jan-26 00:31N 54°42' W 001°02'0 0.0
2015-Jan-25 23:31N 54°42' W 001°02'0 0.0
2015-Jan-25 22:31N 54°42' W 001°02'0 0.0
2015-Jan-25 21:32N 54°42' W 001°02'0 0.1
2015-Jan-25 20:31N 54°42' W 001°02'0 0.0
2015-Jan-25 19:31N 54°42' W 001°02'0 0.0
2015-Jan-25 18:30N 54°42' W 001°02'0 0.0
2015-Jan-25 17:33N 54°42' W 001°02'0 0.0
2015-Jan-25 16:33N 54°42' W 001°02'0 0.0
2015-Jan-25 15:33N 54°42' W 001°02'0 0.0
2015-Jan-25 14:33N 54°42' W 001°02'0 0.0
2015-Jan-25 13:33N 54°42' W 001°02'0 0.0
2015-Jan-25 12:21N 54°42' W 001°02'0 0.0
2015-Jan-25 11:18N 54°42' W 001°02'0 0.0
2015-Jan-25 10:33N 54°42' W 001°02'0 0.0
2015-Jan-25 09:09N 54°42' W 001°02'0 0.0
2015-Jan-25 08:33N 54°42' W 001°02'0 0.0
2015-Jan-25 07:33N 54°42' W 001°02'0 0.0
2015-Jan-25 06:33N 54°42' W 001°02'0 0.0
2015-Jan-25 05:33N 54°42' W 001°02'0 0.0
2015-Jan-25 04:33N 54°42' W 001°02'0 0.0
2015-Jan-25 03:33N 54°42' W 001°02'0 0.0
2015-Jan-25 02:33N 54°42' W 001°02'0 0.0
2015-Jan-25 01:30N 54°42' W 001°02'0 0.0
2015-Jan-25 00:33N 54°42' W 001°02'0 0.0
2015-Jan-24 23:33N 54°42' W 001°02'0 0.1
2015-Jan-24 22:33N 54°42' W 001°02'0 0.0
2015-Jan-24 21:33N 54°42' W 001°02'0 0.0
2015-Jan-24 20:33N 54°42' W 001°02'0 0.1
2015-Jan-24 19:33N 54°42' W 001°02'9 9.3
2015-Jan-24 18:33N 54°45' W 000°47'1413.8
2015-Jan-24 17:33N 54°50' W 000°25'1413.5
2015-Jan-24 16:33N 54°56' W 000°04'1312.7
2015-Jan-24 15:33N 55°01' E 000°17'37110.0
2015-Jan-23 02:33N 57°49' E 010°14'1515.3
2015-Jan-23 01:33N 57°50' E 010°42'1515.2
2015-Jan-23 00:33N 57°51' E 011°11'1313.0
2015-Jan-22 23:33N 57°55' E 011°34'9 9.5
2015-Jan-22 22:33N 58°01' E 011°47'4 2.8
2015-Jan-22 21:05N 58°05' E 011°49'0 0.0
2015-Jan-22 20:20N 58°05' E 011°49'0 0.0
2015-Jan-22 19:32N 58°05' E 011°49'0 0.0
2015-Jan-22 18:32N 58°05' E 011°49'0 0.0
2015-Jan-22 17:32N 58°05' E 011°49'0 0.0
2015-Jan-22 16:29N 58°05' E 011°49'0 0.0
2015-Jan-22 15:32N 58°05' E 011°49'0 0.0
2015-Jan-22 14:23N 58°05' E 011°49'0 0.0
2015-Jan-22 13:26N 58°05' E 011°49'0 0.0
2015-Jan-22 12:26N 58°05' E 011°49'0 0.0
2015-Jan-22 11:23N 58°05' E 011°49'0 0.0
2015-Jan-22 10:20N 58°05' E 011°49'0 0.0
2015-Jan-22 09:20N 58°05' E 011°49'0 0.0
2015-Jan-22 07:20N 58°05' E 011°49'0 0.0
2015-Jan-22 06:14N 58°05' E 011°49'0 0.0
2015-Jan-22 04:26N 58°05' E 011°49'0 0.0
2015-Jan-22 03:17N 58°05' E 011°49'0 0.0
2015-Jan-22 01:26N 58°05' E 011°49'5 5.2
2015-Jan-22 00:34N 58°01' E 011°47'9 9.3
2015-Jan-21 23:33N 57°55' E 011°34'810.5
2015-Jan-21 22:50N 57°48' E 011°26'114.3
2015-Jan-21 22:46N 57°47' E 011°26'314.9
2015-Jan-21 22:34N 57°44' E 011°25'1514.8
2015-Jan-21 21:34N 57°29' E 011°27'1514.6
2015-Jan-21 20:34N 57°16' E 011°36'1414.2
2015-Jan-21 19:33N 57°02' E 011°44'1414.2
2015-Jan-21 18:33N 56°49' E 011°53'1414.2
2015-Jan-21 17:33N 56°35' E 011°59'1414.3
2015-Jan-21 16:34N 56°21' E 012°05'1413.9
2015-Jan-21 15:34N 56°11' E 012°24'1313.5
2015-Jan-21 14:33N 56°02' E 012°40'1413.9
2015-Jan-21 13:34N 55°48' E 012°42'1413.7
2015-Jan-21 12:34N 55°34' E 012°42'1312.7
2015-Jan-21 11:34N 55°21' E 012°40'1211.8
2015-Jan-21 10:33N 55°16' E 012°58'1414.1
2015-Jan-21 09:33N 55°15' E 013°23'1413.7
2015-Jan-21 08:33N 55°14' E 013°47'1413.9
2015-Jan-21 07:33N 55°13' E 014°11'1312.7
2015-Jan-21 06:34N 55°21' E 014°28'1514.6
2015-Jan-21 05:34N 55°31' E 014°48'1414.4
2015-Jan-21 04:33N 55°38' E 015°11'  

Dump ship's entire track history